Departure
Cartersville Airport
Cartersville, US
cloud Weather
- Wind
- 0° / 0 kt
- Visibility
- 10 SM
- Ceiling
- CLR
- Temp / Dew
- 29°C / 21°C
- Altimeter
- 30.08 inHg
Obs: 2026-09-01T00:35:00.000Z
Raw METAR
METAR KVPC 010035Z AUTO 00000KT 10SM 29/21 A3008 RMK AO2
local_airport Airport
KVPC · Cartersville, US
Departure
Cartersville, US
Obs: 2026-09-01T00:35:00.000Z
METAR KVPC 010035Z AUTO 00000KT 10SM 29/21 A3008 RMK AO2
| Date | Flight | Aircraft | Route | Takeoff | Landing | Duration | Dep Δ |
|---|---|---|---|---|---|---|---|
| 2026-07-26 | GRB514 | A72DCB | - | Jul 26, 18:45 UTC | Jul 26, 21:50 UTC | 3h 5m | - |
| 2026-07-26 | GRB514 | A72DCB | - | Jul 26, 17:10 UTC | Jul 26, 17:40 UTC | 30m | - |
| 2026-07-24 | N565PC | A73AC5 | - | Jul 24, 17:45 UTC | Jul 24, 20:35 UTC | 2h 50m | - |
| 2026-07-22 | GRB457 | A16971 | - | Jul 22, 01:25 UTC | Jul 22, 05:10 UTC | 3h 45m | - |
| 2026-07-21 | GRB457 | A16971 | - | Jul 21, 23:40 UTC | Jul 22, 00:20 UTC | 40m | - |
| 2026-07-21 | GRB457 | A16971 | - | Jul 21, 19:25 UTC | Jul 21, 19:45 UTC | 20m | - |
| 2026-07-20 | GRB457 | A16971 | - | Jul 20, 23:35 UTC | Jul 21, 00:05 UTC | 30m | - |
| 2026-07-20 | GRB457 | A16971 | - | Jul 20, 18:10 UTC | Jul 20, 19:30 UTC | 1h 20m | - |
| 2026-07-20 | GRB159 | A72DCB | - | Jul 20, 00:50 UTC | Jul 20, 02:05 UTC | 1h 15m | - |
| 2026-07-19 | GRB159 | A72DCB | - | Jul 19, 22:50 UTC | Jul 20, 00:05 UTC | 1h 15m | - |
| 2026-07-18 | N5683D | A74767 | - | Jul 18, 16:40 UTC | Jul 18, 17:10 UTC | 30m | - |
| 2026-07-12 | N3889Q | A47CA4 | - | Jul 12, 11:55 UTC | Jul 12, 12:35 UTC | 40m | - |
| 2026-07-08 | N3889Q | A47CA4 | - | Jul 8, 12:05 UTC | Jul 8, 12:25 UTC | 20m | - |
| 2026-07-07 | N967JR | AD76FF | - | Jul 7, 02:55 UTC | Jul 7, 03:15 UTC | 20m | - |
| 2026-07-02 | N1148N | A03E8C | - | Jul 2, 15:40 UTC | Jul 2, 16:10 UTC | 30m | - |
| 2026-07-02 | N2145T | A1CB77 | - | Jul 2, 11:55 UTC | Jul 2, 12:55 UTC | 1h 0m | - |
| 2026-07-01 | N2145T | A1CB77 | - | Jul 1, 23:30 UTC | Jul 1, 23:45 UTC | 15m | - |
| 2026-06-29 | N32444 | A3802D | - | Jun 29, 00:49 UTC | Jun 29, 01:05 UTC | 15m | - |
| 2026-06-27 | N738XG | A9EAD7 | - | Jun 27, 21:19 UTC | Jun 27, 22:09 UTC | 50m | - |
| 2026-06-16 | N739EA | A9ECDF | - | Jun 16, 12:00 UTC | Jun 16, 12:14 UTC | 15m | - |
| 2026-06-13 | N46BX | A59771 | - | Jun 13, 13:45 UTC | Jun 13, 14:20 UTC | 35m | - |
| 2026-06-13 | N739EA | A9ECDF | - | Jun 13, 12:45 UTC | Jun 13, 13:20 UTC | 35m | - |
| 2026-06-10 | GRB438 | A6D6D9 | - | Jun 10, 17:30 UTC | Jun 10, 18:40 UTC | 1h 10m | - |
| 2026-06-10 | N8850U | AC32D3 | - | Jun 10, 17:10 UTC | Jun 10, 18:25 UTC | 1h 15m | - |
| 2026-06-10 | GRB438 | A6D6D9 | - | Jun 10, 15:10 UTC | Jun 10, 16:10 UTC | 1h 0m | - |
| Date | Flight | Aircraft | Route | Takeoff | Landing | Duration | Arr Δ |
|---|---|---|---|---|---|---|---|
| 2026-07-23 | N75WH | AA19AC | - | Jul 23, 20:50 UTC | Jul 23, 22:40 UTC | 1h 50m | - |
| 2026-07-23 | N2145T | A1CB77 | - | Jul 23, 20:10 UTC | Jul 23, 20:25 UTC | 15m | - |
| 2026-07-21 | N8850U | AC32D3 | - | Jul 21, 22:50 UTC | Jul 22, 00:55 UTC | 2h 5m | - |
| 2026-07-21 | N2145T | A1CB77 | - | Jul 21, 17:55 UTC | Jul 21, 18:20 UTC | 25m | - |
| 2026-07-21 | BPX265 | A698FA | - | Jul 21, 15:40 UTC | Jul 21, 15:50 UTC | 10m | - |
| 2026-07-21 | N967JR | AD76FF | - | Jul 21, 11:15 UTC | Jul 21, 11:25 UTC | 10m | - |
| 2026-07-20 | N1370E | A0978F | - | Jul 20, 19:40 UTC | Jul 20, 20:05 UTC | 25m | - |
| 2026-07-20 | N715WM | A990A0 | - | Jul 20, 18:20 UTC | Jul 20, 18:30 UTC | 10m | - |
| 2026-07-20 | BLKWG31 | A4C73E | - | Jul 20, 13:50 UTC | Jul 20, 14:45 UTC | 55m | - |
| 2026-07-20 | N3889Q | A47CA4 | - | Jul 20, 12:30 UTC | Jul 20, 13:00 UTC | 30m | - |
| 2026-07-19 | GRB92 | A150CE | - | Jul 19, 14:35 UTC | Jul 20, 01:55 UTC | 11h 20m | - |
| 2026-07-19 | N739EA | A9ECDF | - | Jul 19, 13:40 UTC | Jul 19, 14:50 UTC | 1h 10m | - |
| 2026-07-18 | N1370E | A0978F | - | Jul 18, 17:00 UTC | Jul 18, 17:20 UTC | 20m | - |
| 2026-07-17 | N540PA | A6D932 | - | Jul 17, 18:34 UTC | Jul 17, 20:29 UTC | 1h 55m | - |
| 2026-07-17 | BPX265 | A698FA | - | Jul 17, 15:35 UTC | Jul 17, 15:44 UTC | 10m | - |
| 2026-07-16 | N2145T | A1CB77 | - | Jul 16, 17:14 UTC | Jul 16, 17:30 UTC | 15m | - |
| 2026-07-15 | N43WR | A522C9 | - | Jul 15, 19:00 UTC | Jul 15, 20:05 UTC | 1h 5m | - |
| 2026-07-12 | BPX282 | AC899C | - | Jul 12, 13:25 UTC | Jul 12, 13:45 UTC | 20m | - |
| 2026-07-12 | N3889Q | A47CA4 | - | Jul 12, 11:55 UTC | Jul 12, 12:35 UTC | 40m | - |
| 2026-07-11 | N967JR | AD76FF | - | Jul 11, 18:35 UTC | Jul 11, 19:05 UTC | 30m | - |
| 2026-07-11 | N47PL | A5C011 | - | Jul 11, 17:30 UTC | Jul 11, 17:40 UTC | 10m | - |
| 2026-07-10 | N540PA | A6D932 | - | Jul 10, 20:40 UTC | Jul 10, 21:30 UTC | 50m | - |
| 2026-07-10 | BPX257 | A23359 | - | Jul 10, 13:35 UTC | Jul 10, 13:45 UTC | 10m | - |
| 2026-07-09 | BPX215 | AAB267 | - | Jul 9, 15:45 UTC | Jul 9, 15:55 UTC | 10m | - |
| 2026-07-09 | BPX271 | A204E5 | - | Jul 9, 11:35 UTC | Jul 9, 12:15 UTC | 40m | - |